TISTTNCB

Guest
Details From TIST - St Thomas - Cyril E King
To TNCB - Bonaire Flamingo
Flight Number -
Tags Generated
Created
Modified
Stats Distance 419 nm / 776 km
Max Altitude 0 ft / 0 m
Waypoints 3
Social Downloads 1
Likes 0
Share VATSIM

Download

Looking for another format? Having issues loading an existing format? Contact us
Advertisement - Login to hide

Notes

Generated

Route

TIST PJB TNCB

ID Type Via Altitude Latitude Longitude Leg Dist Tot Dist Heading (true) Name
O TIST APT - 0 ft / 0 m 18.33687˚ -64.98343˚ - 0 nm - -
PJB NDB - 0 ft / 0 m 12.13282˚ -68.28101˚ 418 nm 418 nm 208° / 207° BONAIRE NDB
O TNCB APT - 0 ft / 0 m 12.13144˚ -68.28175˚ 0 nm 418 nm 208° / 208° -

Altitude Profile

Advertisement - Login to hide

Weather


0- 5 10 15 20 25 30 35+ Temperature / ° C

Clouds and Precipitation
Forecast for 2017-12-11 06:00 UTC. Updated 2 hours ago

Ground ~20,000 ft ~40,000 ft Winds

TIST

Details ICAO TIST (STT)
Name St Thomas - Cyril E King
Region USA (U.S. Virgin Islands)
Timezone Unknown (UTC+0.0)
Stats Elevation 23 ft / 7 m (AMSL)
Location 18.337300° -64.973344°
Runways 1
Magnetic Variation 13.635° W

METAR

TIST 110153Z AUTO A2999

Decode

TAF

TAF TIST 102320Z 1100/1124 07007KT P6SM FEW028 FM110300 05006KT P6SM SCT026 FM110600 05006KT P6SM VCSH SCT025 SCT040 FM111800 06012KT P6SM SCT028 SCT040

Decode

Departure Runways

ID Width Length Bearing (true) Bearing (mag) Surface Threshold Offset Overrun Length
10 151 ft / 46 m 6,992 ft / 2,131 m 87.44° 101.08° Asphalt 0 ft / 0 m 200 ft / 61 m
28 151 ft / 46 m 6,992 ft / 2,131 m 267.44° 281.08° Asphalt 2,300 ft / 701 m 200 ft / 61 m

TNCB

Details ICAO TNCB (BON)
Name Bonaire Flamingo
Region Caribbean Netherlands, Aruba, Curaçao, Sint Maarten
Timezone America/Curacao (UTC-4.0)
Stats Elevation 20 ft / 6 m (AMSL)
Location 12.131046° -68.268511°
Runways 1
Magnetic Variation 11.703° W

METAR

TNCB 110155Z AUTO 08006KT 9999 SCT020/// SCT027/// 26/23 Q1013

Decode

TAF

TAF TNCB 102316Z 1100/1206 07012KT 9999 SCT018 BECMG 1109/1112 12007KT PROB30 TEMPO 1112/1118 09015G25KT 5000 SHRA SCT018CB BKN020

Decode

Destination Runways

ID Width Length Bearing (true) Bearing (mag) Surface Threshold Offset Overrun Length
10 148 ft / 45 m 9,451 ft / 2,881 m 91.75° 103.45° Asphalt 0 ft / 0 m 0 ft / 0 m
28 148 ft / 45 m 9,451 ft / 2,881 m 271.76° 283.46° Asphalt 0 ft / 0 m 200 ft / 61 m